createdAt,value
2023-04-16T00:01:17.094Z,12.40
2023-04-16T00:03:45.212Z,12.43
2023-04-16T00:06:13.497Z,12.39
2023-04-16T00:08:43.345Z,12.35
2023-04-16T00:11:11.527Z,12.36
2023-04-16T00:13:39.503Z,12.40
2023-04-16T00:16:07.986Z,12.43
2023-04-16T00:18:36.160Z,12.49
2023-04-16T00:21:04.197Z,12.52
2023-04-16T00:23:32.263Z,12.23
2023-04-16T00:26:00.366Z,11.32
2023-04-16T00:28:28.455Z,10.52
2023-04-16T00:30:56.423Z,9.91
2023-04-16T00:33:24.517Z,9.43
2023-04-16T00:35:52.561Z,9.02
2023-04-16T00:38:20.996Z,8.63
2023-04-16T00:40:48.963Z,8.25
2023-04-16T00:43:23.255Z,7.91
2023-04-16T00:45:56.641Z,7.58
2023-04-16T00:48:27.872Z,7.44
2023-04-16T00:50:56.184Z,8.18
2023-04-16T00:53:24.589Z,8.93
2023-04-16T00:55:52.605Z,9.41
2023-04-16T00:58:20.685Z,9.76
2023-04-16T01:00:48.843Z,10.03
2023-04-16T01:03:17.526Z,10.27
2023-04-16T01:05:46.159Z,10.48
2023-04-16T01:08:21.496Z,10.60
2023-04-16T01:10:49.542Z,10.74
2023-04-16T01:13:17.497Z,10.83
2023-04-16T01:15:45.612Z,10.93
2023-04-16T01:18:17.556Z,11.03
2023-04-16T01:20:46.742Z,11.08
2023-04-16T01:23:15.219Z,11.11
2023-04-16T01:25:46.666Z,11.19
2023-04-16T01:28:18.289Z,11.18
2023-04-16T01:30:47.340Z,11.22
2023-04-16T01:33:21.695Z,11.25
2023-04-16T01:35:55.871Z,11.26
2023-04-16T01:38:24.036Z,11.27
2023-04-16T01:40:57.745Z,11.21
2023-04-16T01:43:25.864Z,11.12
2023-04-16T01:46:16.418Z,11.07
2023-04-16T01:48:44.764Z,11.09
2023-04-16T01:51:12.888Z,11.04
2023-04-16T01:53:40.860Z,11.07
2023-04-16T01:56:08.950Z,11.12
2023-04-16T01:58:37.047Z,11.15
2023-04-16T02:01:06.006Z,11.05
2023-04-16T02:03:34.615Z,10.98
2023-04-16T02:06:02.869Z,10.85
2023-04-16T02:08:30.817Z,10.87
2023-04-16T02:11:00.538Z,10.93
2023-04-16T02:13:28.708Z,10.96
2023-04-16T02:15:57.064Z,11.01
2023-04-16T02:18:36.826Z,11.06
2023-04-16T02:21:06.538Z,10.97
2023-04-16T02:23:35.113Z,10.89
2023-04-16T02:26:03.301Z,10.89
2023-04-16T02:28:31.726Z,10.76
2023-04-16T02:31:00.675Z,10.53
2023-04-16T02:33:29.287Z,10.48
2023-04-16T02:36:02.722Z,10.48
2023-04-16T02:38:31.109Z,10.59
2023-04-16T02:40:59.476Z,10.60
2023-04-16T02:43:27.740Z,10.70
2023-04-16T02:45:55.982Z,10.75
2023-04-16T02:48:24.216Z,10.79
2023-04-16T02:50:52.324Z,10.81
2023-04-16T02:53:20.468Z,10.85
2023-04-16T02:55:55.079Z,10.89
2023-04-16T02:58:24.691Z,10.91
2023-04-16T03:00:53.864Z,10.96
2023-04-16T03:03:22.584Z,10.95
2023-04-16T03:05:51.056Z,10.96
2023-04-16T03:08:19.089Z,10.97
2023-04-16T03:10:47.292Z,11.01
2023-04-16T03:13:15.777Z,10.97
2023-04-16T03:15:50.071Z,10.93
2023-04-16T03:18:18.263Z,10.84
2023-04-16T03:20:46.270Z,10.84
2023-04-16T03:23:14.248Z,10.82
2023-04-16T03:25:43.707Z,10.77
2023-04-16T03:28:12.083Z,10.79
2023-04-16T03:30:40.502Z,10.79
2023-04-16T03:33:09.292Z,10.75
2023-04-16T03:35:37.423Z,10.73
2023-04-16T03:38:05.838Z,10.72
2023-04-16T03:40:33.916Z,10.58
2023-04-16T03:43:02.460Z,10.50
2023-04-16T03:45:30.566Z,10.54
2023-04-16T03:47:59.656Z,10.56
2023-04-16T03:50:27.700Z,10.62
2023-04-16T03:52:56.297Z,10.73
2023-04-16T03:55:24.724Z,10.76
2023-04-16T03:57:52.936Z,10.75
2023-04-16T04:00:21.265Z,10.69
2023-04-16T04:02:57.125Z,10.68
2023-04-16T04:05:25.465Z,10.83
2023-04-16T04:07:54.037Z,10.84
2023-04-16T04:10:22.086Z,10.89
2023-04-16T04:12:50.022Z,10.97
2023-04-16T04:15:18.642Z,11.08
2023-04-16T04:17:46.699Z,11.08
2023-04-16T04:20:14.698Z,11.06
2023-04-16T04:22:45.297Z,11.13
2023-04-16T04:25:13.451Z,11.23
2023-04-16T04:27:41.597Z,11.35
2023-04-16T04:30:10.873Z,11.49
2023-04-16T04:32:42.503Z,11.62
2023-04-16T04:35:11.115Z,11.72
2023-04-16T04:37:39.124Z,11.76
2023-04-16T04:40:13.647Z,11.86
2023-04-16T04:42:41.779Z,11.92
2023-04-16T04:45:11.659Z,11.95
2023-04-16T04:47:39.879Z,12.02
2023-04-16T04:50:09.085Z,12.12
2023-04-16T04:52:37.917Z,12.15
2023-04-16T04:55:06.384Z,12.19
2023-04-16T04:57:34.465Z,12.04
2023-04-16T05:00:04.404Z,11.18
2023-04-16T05:02:40.093Z,10.27
2023-04-16T05:05:08.921Z,9.70
2023-04-16T05:07:36.969Z,9.91
2023-04-16T05:10:05.982Z,10.56
2023-04-16T05:12:33.928Z,11.07
2023-04-16T05:15:01.843Z,11.38
2023-04-16T05:17:29.894Z,11.62
2023-04-16T05:19:57.860Z,11.86
2023-04-16T05:22:25.907Z,12.13
2023-04-16T05:24:53.838Z,12.35
2023-04-16T05:27:21.827Z,12.44
2023-04-16T05:29:49.820Z,12.59
2023-04-16T05:32:18.132Z,12.77
2023-04-16T05:34:46.074Z,12.37
2023-04-16T05:37:14.023Z,11.64
2023-04-16T05:39:42.033Z,11.02
2023-04-16T05:42:10.043Z,11.09
2023-04-16T05:44:38.044Z,11.68
2023-04-16T05:47:07.362Z,12.13
2023-04-16T05:49:37.530Z,12.57
2023-04-16T05:52:05.898Z,12.90
2023-04-16T05:54:33.911Z,13.15
2023-04-16T05:57:02.214Z,13.34
2023-04-16T05:59:31.198Z,13.58
2023-04-16T06:01:59.521Z,13.78
2023-04-16T06:04:27.628Z,13.96
2023-04-16T06:06:55.682Z,13.49
2023-04-16T06:09:24.778Z,12.87
2023-04-16T06:11:55.591Z,12.49
2023-04-16T06:14:23.571Z,12.48
2023-04-16T06:16:51.570Z,13.09
2023-04-16T06:19:19.632Z,13.77
2023-04-16T06:21:47.779Z,14.43
2023-04-16T06:24:15.872Z,15.28
2023-04-16T06:26:44.089Z,15.41
2023-04-16T06:29:14.120Z,15.00
2023-04-16T06:31:42.217Z,14.45
2023-04-16T06:34:18.811Z,13.93
2023-04-16T06:36:46.894Z,14.08
2023-04-16T06:39:14.981Z,14.64
2023-04-16T06:41:43.024Z,15.09
2023-04-16T06:44:10.993Z,15.13
2023-04-16T06:46:38.969Z,14.48
2023-04-16T06:49:07.431Z,13.91
2023-04-16T06:51:35.532Z,13.93
2023-04-16T06:54:03.498Z,14.57
2023-04-16T06:56:32.360Z,15.10
2023-04-16T06:59:01.079Z,15.51
2023-04-16T07:01:31.164Z,15.74
2023-04-16T07:03:59.449Z,15.22
2023-04-16T07:06:28.025Z,14.61
2023-04-16T07:08:56.067Z,14.12
2023-04-16T07:11:24.056Z,14.03
2023-04-16T07:13:54.080Z,14.73
2023-04-16T07:16:22.077Z,15.41
2023-04-16T07:18:50.450Z,16.08
2023-04-16T07:21:18.509Z,16.59
2023-04-16T07:23:46.418Z,16.84
2023-04-16T07:26:14.437Z,16.42
2023-04-16T07:28:42.584Z,15.79
2023-04-16T07:31:10.518Z,15.40
2023-04-16T07:33:38.562Z,15.21
2023-04-16T07:36:06.949Z,15.16
2023-04-16T07:38:34.914Z,15.49
2023-04-16T07:41:02.909Z,16.19
2023-04-16T07:43:31.109Z,16.69
2023-04-16T07:45:59.085Z,16.96
2023-04-16T07:48:27.193Z,16.65
2023-04-16T07:50:55.764Z,16.21
2023-04-16T07:53:23.849Z,15.80
2023-04-16T07:55:51.857Z,15.53
2023-04-16T07:58:19.788Z,15.51
2023-04-16T08:00:49.305Z,15.63
2023-04-16T08:03:18.910Z,15.58
2023-04-16T08:05:47.064Z,15.62
2023-04-16T08:08:15.032Z,16.57
2023-04-16T08:10:43.064Z,17.61
2023-04-16T08:13:11.111Z,17.46
2023-04-16T08:15:39.061Z,17.12
2023-04-16T08:18:12.937Z,16.78
2023-04-16T08:20:41.202Z,16.50
2023-04-16T08:23:12.401Z,16.35
2023-04-16T08:25:40.445Z,16.35
2023-04-16T08:28:08.423Z,16.40
2023-04-16T08:30:36.366Z,16.25
2023-04-16T08:33:04.423Z,16.23
2023-04-16T08:35:32.462Z,16.36
2023-04-16T08:38:02.387Z,16.40
2023-04-16T08:40:30.993Z,16.34
2023-04-16T08:42:59.595Z,16.28
2023-04-16T08:45:27.792Z,16.19
2023-04-16T08:47:56.049Z,16.07
2023-04-16T08:50:25.526Z,15.84
2023-04-16T08:52:58.298Z,15.57
2023-04-16T08:55:39.796Z,15.35
2023-04-16T08:58:24.381Z,15.05
2023-04-16T09:00:52.322Z,14.96
2023-04-16T09:03:21.731Z,14.95
2023-04-16T09:06:02.734Z,14.94
2023-04-16T09:08:33.931Z,14.84
2023-04-16T09:11:04.079Z,14.75
2023-04-16T09:13:32.400Z,14.69
2023-04-16T09:16:01.860Z,14.69
2023-04-16T09:18:31.229Z,14.61
2023-04-16T09:20:59.251Z,14.52
2023-04-16T09:23:27.275Z,14.40
2023-04-16T09:25:56.949Z,14.35
2023-04-16T09:28:48.325Z,14.38
2023-04-16T09:31:18.060Z,14.80
2023-04-16T09:34:06.761Z,15.69
2023-04-16T09:36:35.466Z,16.37
2023-04-16T09:39:03.984Z,16.18
2023-04-16T09:41:36.024Z,15.92
2023-04-16T09:44:05.449Z,15.62
2023-04-16T09:46:41.272Z,15.44
2023-04-16T09:49:16.603Z,15.39
2023-04-16T09:51:46.636Z,15.20
2023-04-16T09:54:14.620Z,14.92
2023-04-16T09:56:44.595Z,14.66
2023-04-16T09:59:19.673Z,14.51
2023-04-16T10:01:49.843Z,14.49
2023-04-16T10:04:18.183Z,14.52
2023-04-16T10:07:05.106Z,14.58
2023-04-16T10:09:37.479Z,15.21
2023-04-16T10:12:06.344Z,16.11
2023-04-16T10:14:34.992Z,16.45
2023-04-16T10:17:04.844Z,15.98
2023-04-16T10:19:32.957Z,15.47
2023-04-16T10:22:02.218Z,15.20
2023-04-16T10:24:31.430Z,15.18
2023-04-16T10:26:59.770Z,15.27
2023-04-16T10:29:29.032Z,15.35
2023-04-16T10:31:57.127Z,15.40
2023-04-16T10:34:25.692Z,15.43
2023-04-16T10:36:54.342Z,15.41
2023-04-16T10:39:25.004Z,15.45
2023-04-16T10:42:08.293Z,15.50
2023-04-16T10:44:36.817Z,15.52
2023-04-16T10:47:12.114Z,15.45
2023-04-16T10:49:41.240Z,15.32
2023-04-16T10:52:14.948Z,15.24
2023-04-16T10:54:43.367Z,15.14
2023-04-16T10:57:17.889Z,15.03
2023-04-16T10:59:46.564Z,15.02
2023-04-16T11:02:18.541Z,15.03
2023-04-16T11:04:49.848Z,15.06
2023-04-16T11:07:20.682Z,15.07
2023-04-16T11:10:00.092Z,15.09
2023-04-16T11:12:41.187Z,15.10
2023-04-16T11:15:16.935Z,15.12
2023-04-16T11:17:51.762Z,15.20
2023-04-16T11:20:21.691Z,15.28
2023-04-16T11:22:50.683Z,15.35
2023-04-16T11:25:31.748Z,15.37
2023-04-16T11:27:59.935Z,15.39
2023-04-16T11:30:34.241Z,15.32
2023-04-16T11:33:04.184Z,15.26
2023-04-16T11:35:32.628Z,15.29
2023-04-16T11:38:00.671Z,15.36
2023-04-16T11:40:31.884Z,15.41
2023-04-16T11:43:24.179Z,15.46
2023-04-16T11:46:00.061Z,15.53
2023-04-16T11:48:48.054Z,15.58
2023-04-16T11:51:16.368Z,15.74
2023-04-16T11:53:53.313Z,15.74
2023-04-16T11:56:33.287Z,15.60
2023-04-16T11:59:20.312Z,15.61
2023-04-16T12:01:51.567Z,15.70
2023-04-16T12:04:25.287Z,15.76
2023-04-16T12:07:06.971Z,15.67
2023-04-16T12:09:37.862Z,15.63
2023-04-16T12:12:26.262Z,15.71
2023-04-16T12:14:54.938Z,15.91
2023-04-16T12:17:23.575Z,16.01
2023-04-16T12:19:52.467Z,15.95
2023-04-16T12:22:31.079Z,15.79
2023-04-16T12:24:59.604Z,15.80
2023-04-16T12:27:53.366Z,15.91
2023-04-16T12:30:23.807Z,16.04
2023-04-16T12:32:55.558Z,16.06
2023-04-16T12:35:32.375Z,16.00
2023-04-16T12:38:01.193Z,15.91
2023-04-16T12:40:29.109Z,15.98
2023-04-16T12:42:57.569Z,16.01
2023-04-16T12:45:25.927Z,15.97
2023-04-16T12:47:53.940Z,15.88
2023-04-16T12:50:22.469Z,15.81
2023-04-16T12:52:50.538Z,15.77
2023-04-16T12:55:21.374Z,15.74
2023-04-16T12:57:52.820Z,15.68
2023-04-16T13:00:21.207Z,15.72
2023-04-16T13:02:49.478Z,15.84
2023-04-16T13:05:19.609Z,15.99
2023-04-16T13:07:47.803Z,16.04
2023-04-16T13:10:16.922Z,16.16
2023-04-16T13:12:49.939Z,16.37
2023-04-16T13:15:31.298Z,16.54
2023-04-16T13:17:59.412Z,16.74
2023-04-16T13:20:38.602Z,16.83
2023-04-16T13:23:22.022Z,16.77
2023-04-16T13:25:58.644Z,16.75
2023-04-16T13:28:29.173Z,16.77
2023-04-16T13:31:14.275Z,16.82
2023-04-16T13:33:59.175Z,16.96
2023-04-16T13:36:27.912Z,17.10
2023-04-16T13:38:56.095Z,17.11
2023-04-16T13:41:24.291Z,17.03
2023-04-16T13:43:52.304Z,17.01
2023-04-16T13:46:20.434Z,16.92
2023-04-16T13:48:48.668Z,16.81
2023-04-16T13:51:16.723Z,16.76
2023-04-16T13:53:44.813Z,16.66
2023-04-16T13:56:12.811Z,16.61
2023-04-16T13:58:41.544Z,16.58
2023-04-16T14:01:10.015Z,16.58
2023-04-16T14:03:39.104Z,16.66
2023-04-16T14:06:07.418Z,16.47
2023-04-16T14:08:35.882Z,16.31
2023-04-16T14:11:05.794Z,16.33
2023-04-16T14:13:33.722Z,16.31
2023-04-16T14:16:02.800Z,16.24
2023-04-16T14:18:30.897Z,16.23
2023-04-16T14:20:59.000Z,16.21
2023-04-16T14:23:27.271Z,16.26
2023-04-16T14:25:55.554Z,16.18
2023-04-16T14:28:23.619Z,16.09
2023-04-16T14:30:51.690Z,15.94
2023-04-16T14:33:19.846Z,15.73
2023-04-16T14:35:47.817Z,15.49
2023-04-16T14:38:16.214Z,15.30
2023-04-16T14:40:44.277Z,15.17
2023-04-16T14:43:12.580Z,15.09
2023-04-16T14:45:41.308Z,15.01
2023-04-16T14:48:09.631Z,14.96
2023-04-16T14:50:39.195Z,14.95
2023-04-16T14:53:07.502Z,14.98
2023-04-16T14:55:35.810Z,15.04
2023-04-16T14:58:04.159Z,15.09
2023-04-16T15:00:34.695Z,15.09
2023-04-16T15:03:02.788Z,15.06
2023-04-16T15:05:31.866Z,14.98
2023-04-16T15:08:00.712Z,14.88
2023-04-16T15:10:28.892Z,14.73
2023-04-16T15:12:56.989Z,14.59
2023-04-16T15:15:25.152Z,14.82
2023-04-16T15:17:53.468Z,15.54
2023-04-16T15:20:21.724Z,16.09
2023-04-16T15:22:49.734Z,15.82
2023-04-16T15:25:17.752Z,15.35
2023-04-16T15:27:46.434Z,14.98
2023-04-16T15:30:14.777Z,14.69
2023-04-16T15:32:44.487Z,14.41
2023-04-16T15:35:13.744Z,14.40
2023-04-16T15:37:41.644Z,15.13
2023-04-16T15:40:10.855Z,15.87
2023-04-16T15:42:39.171Z,16.23
2023-04-16T15:45:07.512Z,15.93
2023-04-16T15:47:36.434Z,15.39
2023-04-16T15:50:05.756Z,14.99
2023-04-16T15:52:33.761Z,14.73
2023-04-16T15:55:04.075Z,14.47
2023-04-16T15:57:32.601Z,14.26
2023-04-16T16:00:07.037Z,14.78
2023-04-16T16:02:36.405Z,15.55
2023-04-16T16:05:07.687Z,16.06
2023-04-16T16:07:36.044Z,16.35
2023-04-16T16:10:06.023Z,15.97
2023-04-16T16:12:34.258Z,15.40
2023-04-16T16:15:02.517Z,14.93
2023-04-16T16:17:30.505Z,14.50
2023-04-16T16:19:59.444Z,14.13
2023-04-16T16:22:27.650Z,14.35
2023-04-16T16:24:56.372Z,15.11
2023-04-16T16:27:24.486Z,15.72
2023-04-16T16:29:52.673Z,16.14
2023-04-16T16:32:20.906Z,16.35
2023-04-16T16:34:48.787Z,15.78
2023-04-16T16:37:16.898Z,15.08
2023-04-16T16:39:44.993Z,14.56
2023-04-16T16:42:14.005Z,14.19
2023-04-16T16:44:41.965Z,13.91
2023-04-16T16:47:10.021Z,13.75
2023-04-16T16:49:38.074Z,14.22
2023-04-16T16:52:06.130Z,14.95
2023-04-16T16:54:34.261Z,15.51
2023-04-16T16:57:05.643Z,15.86
2023-04-16T16:59:33.734Z,16.14
2023-04-16T17:02:02.671Z,16.39
2023-04-16T17:04:30.767Z,16.62
2023-04-16T17:07:00.360Z,16.81
2023-04-16T17:09:28.860Z,16.83
2023-04-16T17:11:57.157Z,16.20
2023-04-16T17:14:25.445Z,15.48
2023-04-16T17:16:53.629Z,14.92
2023-04-16T17:19:21.803Z,14.48
2023-04-16T17:21:51.422Z,14.09
2023-04-16T17:24:19.548Z,13.76
2023-04-16T17:26:47.648Z,13.47
2023-04-16T17:29:15.581Z,13.20
2023-04-16T17:31:43.598Z,12.95
2023-04-16T17:34:11.838Z,12.73
2023-04-16T17:36:40.231Z,12.50
2023-04-16T17:39:08.229Z,12.29
2023-04-16T17:41:36.209Z,12.10
2023-04-16T17:44:04.315Z,11.92
2023-04-16T17:46:32.395Z,12.37
2023-04-16T17:49:00.766Z,13.26
2023-04-16T17:51:28.933Z,13.86
2023-04-16T17:53:56.971Z,14.25
2023-04-16T17:56:24.973Z,14.54
2023-04-16T17:58:52.942Z,14.75
2023-04-16T18:01:21.013Z,14.92
2023-04-16T18:03:49.409Z,15.04
2023-04-16T18:06:17.770Z,15.14
2023-04-16T18:08:46.143Z,15.25
2023-04-16T18:11:14.119Z,15.29
2023-04-16T18:13:43.822Z,15.35
2023-04-16T18:16:18.171Z,15.13
2023-04-16T18:18:46.362Z,14.32
2023-04-16T18:21:14.490Z,13.53
2023-04-16T18:23:42.609Z,12.96
2023-04-16T18:26:11.203Z,12.52
2023-04-16T18:28:40.648Z,12.15
2023-04-16T18:31:08.785Z,11.81
2023-04-16T18:33:52.401Z,11.74
2023-04-16T18:36:24.306Z,12.76
2023-04-16T18:39:00.129Z,13.50
2023-04-16T18:41:31.013Z,13.86
2023-04-16T18:43:59.050Z,14.05
2023-04-16T18:46:27.770Z,14.23
2023-04-16T18:48:56.229Z,14.33
2023-04-16T18:51:25.264Z,14.44
2023-04-16T18:53:53.398Z,14.55
2023-04-16T18:56:21.898Z,14.66
2023-04-16T18:58:49.923Z,14.75
2023-04-16T19:01:18.598Z,14.87
2023-04-16T19:03:46.832Z,14.98
2023-04-16T19:06:14.911Z,14.99
2023-04-16T19:08:43.154Z,14.96
2023-04-16T19:11:11.164Z,14.97
2023-04-16T19:13:39.433Z,14.99
2023-04-16T19:16:11.399Z,14.88
2023-04-16T19:18:39.867Z,14.05
2023-04-16T19:21:10.064Z,13.22
2023-04-16T19:23:38.077Z,12.55
2023-04-16T19:26:06.443Z,12.03
2023-04-16T19:28:34.532Z,11.56
2023-04-16T19:31:02.860Z,11.13
2023-04-16T19:33:31.544Z,10.80
2023-04-16T19:36:00.537Z,10.52
2023-04-16T19:38:29.367Z,10.28
2023-04-16T19:40:57.594Z,10.07
2023-04-16T19:43:25.665Z,9.89
2023-04-16T19:45:54.264Z,9.85
2023-04-16T19:48:22.533Z,10.71
2023-04-16T19:50:50.700Z,11.75
2023-04-16T19:53:18.863Z,12.48
2023-04-16T19:55:46.956Z,12.96
2023-04-16T19:58:15.134Z,13.32
2023-04-16T20:00:43.520Z,13.60
2023-04-16T20:03:11.785Z,13.84
2023-04-16T20:05:39.838Z,14.04
2023-04-16T20:08:07.911Z,14.30
2023-04-16T20:10:36.291Z,14.51
2023-04-16T20:13:05.155Z,13.98
2023-04-16T20:15:33.227Z,13.01
2023-04-16T20:18:01.268Z,12.15
2023-04-16T20:20:29.487Z,11.40
2023-04-16T20:22:58.491Z,10.81
2023-04-16T20:25:26.761Z,10.38
2023-04-16T20:27:54.764Z,10.54
2023-04-16T20:30:24.652Z,11.47
2023-04-16T20:32:52.770Z,12.21
2023-04-16T20:35:21.085Z,12.59
2023-04-16T20:37:49.012Z,12.74
2023-04-16T20:40:17.232Z,12.87
2023-04-16T20:42:51.055Z,12.96
2023-04-16T20:45:19.200Z,13.01
2023-04-16T20:47:47.163Z,13.08
2023-04-16T20:50:15.958Z,13.14
2023-04-16T20:52:43.972Z,13.23
2023-04-16T20:55:12.011Z,13.32
2023-04-16T20:57:40.071Z,13.05
2023-04-16T21:00:12.200Z,12.21
2023-04-16T21:02:40.964Z,11.45
2023-04-16T21:05:14.318Z,10.84
2023-04-16T21:07:42.701Z,10.31
2023-04-16T21:10:11.257Z,10.23
2023-04-16T21:12:39.345Z,10.88
2023-04-16T21:15:08.187Z,11.45
2023-04-16T21:17:36.433Z,11.82
2023-04-16T21:20:07.115Z,12.04
2023-04-16T21:22:35.032Z,12.24
2023-04-16T21:25:03.939Z,12.36
2023-04-16T21:27:31.926Z,12.48
2023-04-16T21:29:59.828Z,12.61
2023-04-16T21:32:27.874Z,12.73
2023-04-16T21:34:56.180Z,12.83
2023-04-16T21:37:24.352Z,12.97
2023-04-16T21:39:52.183Z,13.11
2023-04-16T21:42:20.526Z,13.18
2023-04-16T21:44:48.568Z,13.21
2023-04-16T21:47:16.749Z,13.24
2023-04-16T21:49:44.769Z,13.27
2023-04-16T21:52:18.206Z,13.27
2023-04-16T21:54:46.236Z,13.27
2023-04-16T21:57:14.823Z,13.31
2023-04-16T21:59:42.872Z,13.36
2023-04-16T22:02:10.974Z,13.44
2023-04-16T22:04:39.384Z,13.08
2023-04-16T22:07:11.793Z,12.17
2023-04-16T22:09:40.528Z,11.37
2023-04-16T22:12:11.092Z,10.77
2023-04-16T22:14:44.021Z,10.28
2023-04-16T22:17:17.248Z,9.88
2023-04-16T22:19:45.292Z,9.54
2023-04-16T22:22:13.587Z,9.25
2023-04-16T22:24:42.509Z,8.98
2023-04-16T22:27:10.669Z,8.71
2023-04-16T22:29:38.718Z,8.51
2023-04-16T22:32:07.056Z,8.34
2023-04-16T22:34:35.182Z,8.20
2023-04-16T22:37:03.194Z,8.29
2023-04-16T22:39:31.815Z,9.15
2023-04-16T22:41:59.838Z,10.04
2023-04-16T22:44:27.857Z,10.66
2023-04-16T22:46:55.774Z,11.12
2023-04-16T22:49:23.694Z,11.44
2023-04-16T22:51:51.861Z,11.68
2023-04-16T22:54:19.817Z,11.92
2023-04-16T22:56:48.669Z,12.10
2023-04-16T22:59:16.680Z,12.26
2023-04-16T23:01:44.753Z,12.43
2023-04-16T23:04:12.771Z,12.60
2023-04-16T23:06:40.897Z,12.69
2023-04-16T23:09:09.995Z,12.77
2023-04-16T23:11:38.372Z,12.87
2023-04-16T23:14:06.313Z,12.95
2023-04-16T23:16:34.306Z,12.96
2023-04-16T23:19:02.281Z,12.86
2023-04-16T23:21:31.477Z,12.83
2023-04-16T23:23:59.558Z,12.87
2023-04-16T23:26:27.921Z,12.94
2023-04-16T23:28:57.136Z,13.04
2023-04-16T23:31:25.635Z,13.07
2023-04-16T23:33:54.317Z,13.10
2023-04-16T23:36:22.354Z,13.16
2023-04-16T23:38:50.323Z,13.22
2023-04-16T23:41:18.319Z,13.27
2023-04-16T23:43:46.571Z,13.27
2023-04-16T23:46:14.663Z,13.25
2023-04-16T23:48:42.714Z,13.27
2023-04-16T23:51:10.677Z,13.32
2023-04-16T23:53:40.927Z,13.34
2023-04-16T23:56:11.445Z,13.27
2023-04-16T23:58:39.499Z,13.25
